sensor_id;sensor_type;location;lat;lon;timestamp;P1;durP1;ratioP1;P2;durP2;ratioP2
80776;SDS011;70169;51.262;6.336;2024-02-21T00:01:26;28.53;;;10.10;;
80776;SDS011;70169;51.262;6.336;2024-02-21T00:03:42;22.07;;;9.50;;
80776;SDS011;70169;51.262;6.336;2024-02-21T00:05:57;23.25;;;9.38;;
80776;SDS011;70169;51.262;6.336;2024-02-21T00:08:12;25.47;;;10.33;;
80776;SDS011;70169;51.262;6.336;2024-02-21T00:10:27;19.40;;;8.52;;
80776;SDS011;70169;51.262;6.336;2024-02-21T00:12:43;23.45;;;9.82;;
80776;SDS011;70169;51.262;6.336;2024-02-21T00:14:59;23.05;;;9.85;;
80776;SDS011;70169;51.262;6.336;2024-02-21T00:17:14;21.33;;;9.20;;
80776;SDS011;70169;51.262;6.336;2024-02-21T00:19:29;20.87;;;9.83;;
80776;SDS011;70169;51.262;6.336;2024-02-21T00:21:45;20.90;;;10.40;;
80776;SDS011;70169;51.262;6.336;2024-02-21T00:24:00;28.27;;;9.67;;
80776;SDS011;70169;51.262;6.336;2024-02-21T00:26:15;19.37;;;8.47;;
80776;SDS011;70169;51.262;6.336;2024-02-21T00:28:31;21.83;;;8.88;;
80776;SDS011;70169;51.262;6.336;2024-02-21T00:30:46;24.00;;;9.50;;
80776;SDS011;70169;51.262;6.336;2024-02-21T00:33:02;18.67;;;9.48;;
80776;SDS011;70169;51.262;6.336;2024-02-21T00:35:18;24.27;;;9.20;;
80776;SDS011;70169;51.262;6.336;2024-02-21T00:37:33;27.33;;;10.37;;
80776;SDS011;70169;51.262;6.336;2024-02-21T00:39:48;25.92;;;9.25;;
80776;SDS011;70169;51.262;6.336;2024-02-21T00:42:04;19.53;;;8.30;;
80776;SDS011;70169;51.262;6.336;2024-02-21T00:44:19;24.63;;;8.93;;
80776;SDS011;70169;51.262;6.336;2024-02-21T00:46:35;22.33;;;9.17;;
80776;SDS011;70169;51.262;6.336;2024-02-21T00:48:50;22.40;;;9.60;;
80776;SDS011;70169;51.262;6.336;2024-02-21T00:51:05;19.30;;;9.10;;
80776;SDS011;70169;51.262;6.336;2024-02-21T00:53:20;27.33;;;10.07;;
80776;SDS011;70169;51.262;6.336;2024-02-21T00:55:36;20.50;;;8.53;;
80776;SDS011;70169;51.262;6.336;2024-02-21T00:57:51;20.03;;;8.47;;
80776;SDS011;70169;51.262;6.336;2024-02-21T01:00:06;20.00;;;8.03;;
80776;SDS011;70169;51.262;6.336;2024-02-21T01:02:23;19.50;;;7.75;;
80776;SDS011;70169;51.262;6.336;2024-02-21T01:04:38;21.02;;;8.70;;
80776;SDS011;70169;51.262;6.336;2024-02-21T01:06:53;25.10;;;9.20;;
80776;SDS011;70169;51.262;6.336;2024-02-21T01:09:09;17.13;;;8.83;;
80776;SDS011;70169;51.262;6.336;2024-02-21T01:11:24;21.17;;;7.80;;
80776;SDS011;70169;51.262;6.336;2024-02-21T01:13:40;27.73;;;8.73;;
80776;SDS011;70169;51.262;6.336;2024-02-21T01:15:55;22.30;;;8.10;;
80776;SDS011;70169;51.262;6.336;2024-02-21T01:18:10;19.97;;;8.30;;
80776;SDS011;70169;51.262;6.336;2024-02-21T01:20:26;26.90;;;7.53;;
80776;SDS011;70169;51.262;6.336;2024-02-21T01:22:41;14.53;;;7.90;;
80776;SDS011;70169;51.262;6.336;2024-02-21T01:24:56;18.70;;;8.27;;
80776;SDS011;70169;51.262;6.336;2024-02-21T01:27:12;19.73;;;8.13;;
80776;SDS011;70169;51.262;6.336;2024-02-21T01:29:27;21.07;;;8.30;;
80776;SDS011;70169;51.262;6.336;2024-02-21T01:31:42;19.73;;;8.47;;
80776;SDS011;70169;51.262;6.336;2024-02-21T01:33:57;19.97;;;8.00;;
80776;SDS011;70169;51.262;6.336;2024-02-21T01:36:13;16.98;;;8.50;;
80776;SDS011;70169;51.262;6.336;2024-02-21T01:38:28;15.13;;;7.80;;
80776;SDS011;70169;51.262;6.336;2024-02-21T01:40:44;18.33;;;8.35;;
80776;SDS011;70169;51.262;6.336;2024-02-21T01:42:59;22.10;;;8.83;;
80776;SDS011;70169;51.262;6.336;2024-02-21T01:45:15;19.30;;;8.47;;
80776;SDS011;70169;51.262;6.336;2024-02-21T01:47:30;21.87;;;8.50;;
80776;SDS011;70169;51.262;6.336;2024-02-21T01:49:45;16.33;;;7.77;;
80776;SDS011;70169;51.262;6.336;2024-02-21T01:52:01;19.40;;;8.13;;
80776;SDS011;70169;51.262;6.336;2024-02-21T01:54:18;21.35;;;7.55;;
80776;SDS011;70169;51.262;6.336;2024-02-21T01:56:34;18.33;;;8.00;;
80776;SDS011;70169;51.262;6.336;2024-02-21T01:58:49;21.15;;;7.93;;
80776;SDS011;70169;51.262;6.336;2024-02-21T02:01:06;14.50;;;7.18;;
80776;SDS011;70169;51.262;6.336;2024-02-21T02:03:21;15.53;;;7.63;;
80776;SDS011;70169;51.262;6.336;2024-02-21T02:05:37;19.73;;;8.50;;
80776;SDS011;70169;51.262;6.336;2024-02-21T02:07:52;20.23;;;9.27;;
80776;SDS011;70169;51.262;6.336;2024-02-21T02:10:07;19.27;;;8.07;;
80776;SDS011;70169;51.262;6.336;2024-02-21T02:12:25;18.30;;;7.53;;
80776;SDS011;70169;51.262;6.336;2024-02-21T02:14:40;19.60;;;8.02;;
80776;SDS011;70169;51.262;6.336;2024-02-21T02:16:55;15.97;;;7.37;;
80776;SDS011;70169;51.262;6.336;2024-02-21T02:19:11;21.73;;;7.63;;
80776;SDS011;70169;51.262;6.336;2024-02-21T02:21:29;14.13;;;7.47;;
80776;SDS011;70169;51.262;6.336;2024-02-21T02:23:47;18.15;;;7.28;;
80776;SDS011;70169;51.262;6.336;2024-02-21T02:26:02;16.67;;;7.47;;
80776;SDS011;70169;51.262;6.336;2024-02-21T02:28:18;18.17;;;8.18;;
80776;SDS011;70169;51.262;6.336;2024-02-21T02:30:34;18.45;;;7.65;;
80776;SDS011;70169;51.262;6.336;2024-02-21T02:32:51;18.02;;;8.10;;
80776;SDS011;70169;51.262;6.336;2024-02-21T02:35:06;14.97;;;7.30;;
80776;SDS011;70169;51.262;6.336;2024-02-21T02:37:21;16.13;;;7.13;;
80776;SDS011;70169;51.262;6.336;2024-02-21T02:39:37;20.13;;;8.10;;
80776;SDS011;70169;51.262;6.336;2024-02-21T02:41:52;22.23;;;7.83;;
80776;SDS011;70169;51.262;6.336;2024-02-21T02:44:07;14.80;;;7.03;;
80776;SDS011;70169;51.262;6.336;2024-02-21T02:46:22;13.67;;;7.20;;
80776;SDS011;70169;51.262;6.336;2024-02-21T02:48:38;15.15;;;7.40;;
80776;SDS011;70169;51.262;6.336;2024-02-21T02:50:53;14.93;;;7.60;;
80776;SDS011;70169;51.262;6.336;2024-02-21T02:53:09;19.47;;;7.57;;
80776;SDS011;70169;51.262;6.336;2024-02-21T02:55:24;15.40;;;7.77;;
80776;SDS011;70169;51.262;6.336;2024-02-21T02:57:40;14.60;;;7.00;;
80776;SDS011;70169;51.262;6.336;2024-02-21T02:59:59;16.58;;;7.78;;
80776;SDS011;70169;51.262;6.336;2024-02-21T03:02:14;16.53;;;8.03;;
80776;SDS011;70169;51.262;6.336;2024-02-21T03:04:29;15.10;;;6.57;;
80776;SDS011;70169;51.262;6.336;2024-02-21T03:06:45;20.27;;;7.97;;
80776;SDS011;70169;51.262;6.336;2024-02-21T03:09:00;20.13;;;7.67;;
80776;SDS011;70169;51.262;6.336;2024-02-21T03:11:15;16.10;;;7.53;;
80776;SDS011;70169;51.262;6.336;2024-02-21T03:13:30;18.70;;;7.20;;
80776;SDS011;70169;51.262;6.336;2024-02-21T03:15:46;16.50;;;6.63;;
80776;SDS011;70169;51.262;6.336;2024-02-21T03:18:01;13.07;;;6.00;;
80776;SDS011;70169;51.262;6.336;2024-02-21T03:20:16;15.70;;;7.47;;
80776;SDS011;70169;51.262;6.336;2024-02-21T03:22:32;15.98;;;7.50;;
80776;SDS011;70169;51.262;6.336;2024-02-21T03:24:48;12.47;;;6.47;;
80776;SDS011;70169;51.262;6.336;2024-02-21T03:27:03;12.25;;;6.28;;
80776;SDS011;70169;51.262;6.336;2024-02-21T03:29:18;12.40;;;6.25;;
80776;SDS011;70169;51.262;6.336;2024-02-21T03:31:34;17.07;;;6.60;;
80776;SDS011;70169;51.262;6.336;2024-02-21T03:33:50;16.58;;;7.00;;
80776;SDS011;70169;51.262;6.336;2024-02-21T03:36:05;18.38;;;8.05;;
80776;SDS011;70169;51.262;6.336;2024-02-21T03:38:21;14.90;;;6.82;;
80776;SDS011;70169;51.262;6.336;2024-02-21T03:40:36;15.87;;;6.37;;
80776;SDS011;70169;51.262;6.336;2024-02-21T03:42:51;16.10;;;6.27;;
80776;SDS011;70169;51.262;6.336;2024-02-21T03:45:06;17.73;;;7.00;;
80776;SDS011;70169;51.262;6.336;2024-02-21T03:47:22;15.15;;;6.53;;
80776;SDS011;70169;51.262;6.336;2024-02-21T03:49:38;13.83;;;5.97;;
80776;SDS011;70169;51.262;6.336;2024-02-21T03:51:53;13.63;;;6.10;;
80776;SDS011;70169;51.262;6.336;2024-02-21T03:54:08;12.80;;;6.37;;
80776;SDS011;70169;51.262;6.336;2024-02-21T03:56:24;13.13;;;6.00;;
80776;SDS011;70169;51.262;6.336;2024-02-21T03:58:39;12.88;;;6.05;;
80776;SDS011;70169;51.262;6.336;2024-02-21T04:00:54;14.53;;;5.93;;
80776;SDS011;70169;51.262;6.336;2024-02-21T04:03:10;11.40;;;5.43;;
80776;SDS011;70169;51.262;6.336;2024-02-21T04:05:25;13.83;;;6.03;;
80776;SDS011;70169;51.262;6.336;2024-02-21T04:07:40;13.57;;;5.47;;
80776;SDS011;70169;51.262;6.336;2024-02-21T04:09:55;15.30;;;5.80;;
80776;SDS011;70169;51.262;6.336;2024-02-21T04:12:11;15.87;;;6.00;;
80776;SDS011;70169;51.262;6.336;2024-02-21T04:14:26;15.05;;;5.90;;
80776;SDS011;70169;51.262;6.336;2024-02-21T04:16:42;14.00;;;5.43;;
80776;SDS011;70169;51.262;6.336;2024-02-21T04:18:57;12.10;;;5.53;;
80776;SDS011;70169;51.262;6.336;2024-02-21T04:21:14;8.57;;;5.10;;
80776;SDS011;70169;51.262;6.336;2024-02-21T04:23:31;14.43;;;5.22;;
80776;SDS011;70169;51.262;6.336;2024-02-21T04:25:46;12.37;;;5.83;;
80776;SDS011;70169;51.262;6.336;2024-02-21T04:28:02;13.00;;;5.47;;
80776;SDS011;70169;51.262;6.336;2024-02-21T04:30:17;13.00;;;5.10;;
80776;SDS011;70169;51.262;6.336;2024-02-21T04:32:33;12.10;;;5.40;;
80776;SDS011;70169;51.262;6.336;2024-02-21T04:34:48;13.25;;;5.22;;
80776;SDS011;70169;51.262;6.336;2024-02-21T04:37:04;10.47;;;4.80;;
80776;SDS011;70169;51.262;6.336;2024-02-21T04:39:19;14.10;;;5.70;;
80776;SDS011;70169;51.262;6.336;2024-02-21T04:41:34;15.10;;;5.00;;
80776;SDS011;70169;51.262;6.336;2024-02-21T04:43:49;13.80;;;4.77;;
80776;SDS011;70169;51.262;6.336;2024-02-21T04:46:05;9.73;;;5.03;;
80776;SDS011;70169;51.262;6.336;2024-02-21T04:48:20;8.07;;;4.47;;
80776;SDS011;70169;51.262;6.336;2024-02-21T04:50:36;13.95;;;5.22;;
80776;SDS011;70169;51.262;6.336;2024-02-21T04:52:51;10.73;;;4.55;;
80776;SDS011;70169;51.262;6.336;2024-02-21T04:55:07;12.03;;;4.83;;
80776;SDS011;70169;51.262;6.336;2024-02-21T04:57:23;11.50;;;4.65;;
80776;SDS011;70169;51.262;6.336;2024-02-21T04:59:38;10.27;;;4.40;;
80776;SDS011;70169;51.262;6.336;2024-02-21T05:01:53;10.50;;;4.83;;
80776;SDS011;70169;51.262;6.336;2024-02-21T05:04:09;14.90;;;4.97;;
80776;SDS011;70169;51.262;6.336;2024-02-21T05:06:24;12.32;;;5.10;;
80776;SDS011;70169;51.262;6.336;2024-02-21T05:08:40;12.93;;;4.70;;
80776;SDS011;70169;51.262;6.336;2024-02-21T05:10:55;8.40;;;4.00;;
80776;SDS011;70169;51.262;6.336;2024-02-21T05:13:10;12.37;;;4.73;;
80776;SDS011;70169;51.262;6.336;2024-02-21T05:15:26;9.43;;;4.53;;
80776;SDS011;70169;51.262;6.336;2024-02-21T05:17:41;8.00;;;3.57;;
80776;SDS011;70169;51.262;6.336;2024-02-21T05:19:57;12.23;;;6.38;;
80776;SDS011;70169;51.262;6.336;2024-02-21T05:22:13;10.93;;;4.13;;
80776;SDS011;70169;51.262;6.336;2024-02-21T05:24:28;11.77;;;5.37;;
80776;SDS011;70169;51.262;6.336;2024-02-21T05:26:44;11.10;;;5.20;;
80776;SDS011;70169;51.262;6.336;2024-02-21T05:29:00;13.63;;;5.77;;
80776;SDS011;70169;51.262;6.336;2024-02-21T05:31:15;10.33;;;5.17;;
80776;SDS011;70169;51.262;6.336;2024-02-21T05:33:34;17.17;;;5.45;;
80776;SDS011;70169;51.262;6.336;2024-02-21T05:35:50;14.33;;;5.23;;
80776;SDS011;70169;51.262;6.336;2024-02-21T05:38:05;11.10;;;5.05;;
80776;SDS011;70169;51.262;6.336;2024-02-21T05:40:26;9.93;;;4.30;;
80776;SDS011;70169;51.262;6.336;2024-02-21T05:43:00;15.87;;;5.87;;
80776;SDS011;70169;51.262;6.336;2024-02-21T05:45:15;10.00;;;5.13;;
80776;SDS011;70169;51.262;6.336;2024-02-21T05:47:30;16.57;;;5.77;;
80776;SDS011;70169;51.262;6.336;2024-02-21T05:49:46;12.67;;;5.60;;
80776;SDS011;70169;51.262;6.336;2024-02-21T05:52:01;10.52;;;5.07;;
80776;SDS011;70169;51.262;6.336;2024-02-21T05:54:16;14.43;;;5.20;;
80776;SDS011;70169;51.262;6.336;2024-02-21T05:56:32;10.83;;;4.73;;
80776;SDS011;70169;51.262;6.336;2024-02-21T05:58:47;8.73;;;4.25;;
80776;SDS011;70169;51.262;6.336;2024-02-21T06:01:03;10.32;;;4.95;;
80776;SDS011;70169;51.262;6.336;2024-02-21T06:03:19;14.25;;;5.63;;
80776;SDS011;70169;51.262;6.336;2024-02-21T06:05:37;13.37;;;5.77;;
80776;SDS011;70169;51.262;6.336;2024-02-21T06:07:53;13.55;;;5.72;;
80776;SDS011;70169;51.262;6.336;2024-02-21T06:10:09;10.10;;;4.93;;
80776;SDS011;70169;51.262;6.336;2024-02-21T06:12:24;11.40;;;5.45;;
80776;SDS011;70169;51.262;6.336;2024-02-21T06:14:39;12.47;;;5.67;;
80776;SDS011;70169;51.262;6.336;2024-02-21T06:16:55;17.00;;;5.97;;
80776;SDS011;70169;51.262;6.336;2024-02-21T06:19:10;10.97;;;5.57;;
80776;SDS011;70169;51.262;6.336;2024-02-21T06:21:28;13.73;;;6.05;;
80776;SDS011;70169;51.262;6.336;2024-02-21T06:23:44;13.35;;;5.75;;
80776;SDS011;70169;51.262;6.336;2024-02-21T06:26:00;17.17;;;6.53;;
80776;SDS011;70169;51.262;6.336;2024-02-21T06:28:15;14.77;;;5.65;;
80776;SDS011;70169;51.262;6.336;2024-02-21T06:30:30;16.03;;;5.70;;
80776;SDS011;70169;51.262;6.336;2024-02-21T06:32:46;12.73;;;5.63;;
80776;SDS011;70169;51.262;6.336;2024-02-21T06:35:01;14.07;;;6.20;;
80776;SDS011;70169;51.262;6.336;2024-02-21T06:37:16;12.00;;;5.60;;
80776;SDS011;70169;51.262;6.336;2024-02-21T06:39:32;12.53;;;5.20;;
80776;SDS011;70169;51.262;6.336;2024-02-21T06:41:47;13.90;;;6.27;;
80776;SDS011;70169;51.262;6.336;2024-02-21T06:44:03;12.70;;;5.55;;
80776;SDS011;70169;51.262;6.336;2024-02-21T06:46:25;14.48;;;5.22;;
80776;SDS011;70169;51.262;6.336;2024-02-21T06:50:56;9.30;;;4.03;;
80776;SDS011;70169;51.262;6.336;2024-02-21T06:53:12;13.37;;;5.07;;
80776;SDS011;70169;51.262;6.336;2024-02-21T06:55:27;12.50;;;5.43;;
80776;SDS011;70169;51.262;6.336;2024-02-21T06:57:43;14.45;;;5.00;;
80776;SDS011;70169;51.262;6.336;2024-02-21T06:59:58;14.77;;;5.30;;
80776;SDS011;70169;51.262;6.336;2024-02-21T07:02:13;11.73;;;4.43;;
80776;SDS011;70169;51.262;6.336;2024-02-21T07:04:29;11.80;;;4.70;;
80776;SDS011;70169;51.262;6.336;2024-02-21T07:06:45;10.33;;;5.47;;
80776;SDS011;70169;51.262;6.336;2024-02-21T07:09:00;11.55;;;6.00;;
80776;SDS011;70169;51.262;6.336;2024-02-21T07:11:16;11.27;;;5.53;;
80776;SDS011;70169;51.262;6.336;2024-02-21T07:13:32;12.23;;;5.00;;
80776;SDS011;70169;51.262;6.336;2024-02-21T07:15:47;13.25;;;4.72;;
80776;SDS011;70169;51.262;6.336;2024-02-21T07:18:03;10.88;;;4.80;;
80776;SDS011;70169;51.262;6.336;2024-02-21T07:20:19;10.85;;;4.72;;
80776;SDS011;70169;51.262;6.336;2024-02-21T07:22:34;11.07;;;4.32;;
80776;SDS011;70169;51.262;6.336;2024-02-21T07:24:50;10.13;;;4.45;;
80776;SDS011;70169;51.262;6.336;2024-02-21T07:27:05;9.30;;;4.13;;
80776;SDS011;70169;51.262;6.336;2024-02-21T07:29:20;11.85;;;4.22;;
80776;SDS011;70169;51.262;6.336;2024-02-21T07:31:40;8.53;;;4.07;;
80776;SDS011;70169;51.262;6.336;2024-02-21T07:33:56;12.10;;;4.35;;
80776;SDS011;70169;51.262;6.336;2024-02-21T07:36:11;9.90;;;4.30;;
80776;SDS011;70169;51.262;6.336;2024-02-21T07:38:27;8.53;;;3.97;;
80776;SDS011;70169;51.262;6.336;2024-02-21T07:40:43;14.00;;;3.93;;
80776;SDS011;70169;51.262;6.336;2024-02-21T07:42:59;9.15;;;3.97;;
80776;SDS011;70169;51.262;6.336;2024-02-21T07:45:15;8.17;;;4.07;;
80776;SDS011;70169;51.262;6.336;2024-02-21T07:47:30;11.32;;;3.63;;
80776;SDS011;70169;51.262;6.336;2024-02-21T07:49:45;9.05;;;3.38;;
80776;SDS011;70169;51.262;6.336;2024-02-21T07:52:01;9.93;;;3.30;;
80776;SDS011;70169;51.262;6.336;2024-02-21T07:54:16;9.55;;;4.28;;
80776;SDS011;70169;51.262;6.336;2024-02-21T07:56:32;7.60;;;3.80;;
80776;SDS011;70169;51.262;6.336;2024-02-21T07:58:47;10.48;;;4.00;;
80776;SDS011;70169;51.262;6.336;2024-02-21T08:01:02;11.43;;;4.13;;
80776;SDS011;70169;51.262;6.336;2024-02-21T08:03:18;12.95;;;4.38;;
80776;SDS011;70169;51.262;6.336;2024-02-21T08:05:36;13.70;;;4.87;;
80776;SDS011;70169;51.262;6.336;2024-02-21T08:07:51;11.15;;;4.78;;
80776;SDS011;70169;51.262;6.336;2024-02-21T08:10:07;14.87;;;4.97;;
80776;SDS011;70169;51.262;6.336;2024-02-21T08:12:25;15.00;;;4.30;;
80776;SDS011;70169;51.262;6.336;2024-02-21T08:14:42;12.00;;;4.53;;
80776;SDS011;70169;51.262;6.336;2024-02-21T08:16:58;12.52;;;4.10;;
80776;SDS011;70169;51.262;6.336;2024-02-21T08:19:14;10.85;;;4.32;;
80776;SDS011;70169;51.262;6.336;2024-02-21T08:21:29;10.50;;;4.53;;
80776;SDS011;70169;51.262;6.336;2024-02-21T08:23:45;15.33;;;6.13;;
80776;SDS011;70169;51.262;6.336;2024-02-21T08:26:02;16.43;;;6.73;;
80776;SDS011;70169;51.262;6.336;2024-02-21T08:28:18;12.35;;;5.95;;
80776;SDS011;70169;51.262;6.336;2024-02-21T08:30:34;11.90;;;5.55;;
80776;SDS011;70169;51.262;6.336;2024-02-21T08:32:49;15.60;;;6.82;;
80776;SDS011;70169;51.262;6.336;2024-02-21T08:35:05;12.35;;;5.35;;
80776;SDS011;70169;51.262;6.336;2024-02-21T08:37:21;10.10;;;3.90;;
80776;SDS011;70169;51.262;6.336;2024-02-21T08:39:36;11.60;;;5.07;;
80776;SDS011;70169;51.262;6.336;2024-02-21T08:41:51;9.00;;;4.60;;
80776;SDS011;70169;51.262;6.336;2024-02-21T08:44:07;12.17;;;3.77;;
80776;SDS011;70169;51.262;6.336;2024-02-21T08:46:22;14.18;;;6.05;;
80776;SDS011;70169;51.262;6.336;2024-02-21T08:48:39;9.43;;;4.43;;
80776;SDS011;70169;51.262;6.336;2024-02-21T08:50:54;9.68;;;4.10;;
80776;SDS011;70169;51.262;6.336;2024-02-21T08:53:10;11.75;;;5.00;;
80776;SDS011;70169;51.262;6.336;2024-02-21T08:55:26;14.02;;;4.95;;
80776;SDS011;70169;51.262;6.336;2024-02-21T08:57:41;9.87;;;4.30;;
80776;SDS011;70169;51.262;6.336;2024-02-21T08:59:56;10.98;;;3.97;;
80776;SDS011;70169;51.262;6.336;2024-02-21T09:02:12;9.77;;;4.28;;
80776;SDS011;70169;51.262;6.336;2024-02-21T09:04:28;9.82;;;3.95;;
80776;SDS011;70169;51.262;6.336;2024-02-21T09:06:43;10.45;;;4.25;;
80776;SDS011;70169;51.262;6.336;2024-02-21T09:09:00;9.85;;;3.60;;
80776;SDS011;70169;51.262;6.336;2024-02-21T09:11:15;10.03;;;4.00;;
80776;SDS011;70169;51.262;6.336;2024-02-21T09:13:31;9.00;;;3.70;;
80776;SDS011;70169;51.262;6.336;2024-02-21T09:15:47;9.75;;;3.60;;
80776;SDS011;70169;51.262;6.336;2024-02-21T09:18:03;7.80;;;3.95;;
80776;SDS011;70169;51.262;6.336;2024-02-21T09:20:19;9.23;;;3.90;;
80776;SDS011;70169;51.262;6.336;2024-02-21T09:22:34;11.67;;;3.73;;
80776;SDS011;70169;51.262;6.336;2024-02-21T09:24:50;11.95;;;4.38;;
80776;SDS011;70169;51.262;6.336;2024-02-21T09:27:06;8.40;;;3.47;;
80776;SDS011;70169;51.262;6.336;2024-02-21T09:29:21;11.18;;;3.67;;
80776;SDS011;70169;51.262;6.336;2024-02-21T09:31:37;8.48;;;3.30;;
80776;SDS011;70169;51.262;6.336;2024-02-21T09:33:53;8.98;;;3.45;;
80776;SDS011;70169;51.262;6.336;2024-02-21T09:36:09;9.60;;;3.40;;
80776;SDS011;70169;51.262;6.336;2024-02-21T09:38:24;5.32;;;2.97;;
80776;SDS011;70169;51.262;6.336;2024-02-21T09:40:40;8.13;;;3.20;;
80776;SDS011;70169;51.262;6.336;2024-02-21T09:43:03;6.97;;;3.03;;
80776;SDS011;70169;51.262;6.336;2024-02-21T09:45:23;6.82;;;3.20;;
80776;SDS011;70169;51.262;6.336;2024-02-21T09:48:01;9.00;;;2.92;;
80776;SDS011;70169;51.262;6.336;2024-02-21T09:50:17;10.23;;;3.60;;
80776;SDS011;70169;51.262;6.336;2024-02-21T09:52:36;6.55;;;2.70;;
80776;SDS011;70169;51.262;6.336;2024-02-21T09:54:52;7.57;;;3.22;;
80776;SDS011;70169;51.262;6.336;2024-02-21T09:57:09;9.10;;;3.28;;
80776;SDS011;70169;51.262;6.336;2024-02-21T09:59:24;5.30;;;2.93;;
80776;SDS011;70169;51.262;6.336;2024-02-21T10:01:40;7.60;;;3.25;;
80776;SDS011;70169;51.262;6.336;2024-02-21T10:03:55;6.73;;;2.70;;
80776;SDS011;70169;51.262;6.336;2024-02-21T10:06:10;7.40;;;2.67;;
80776;SDS011;70169;51.262;6.336;2024-02-21T10:08:26;11.23;;;3.05;;
80776;SDS011;70169;51.262;6.336;2024-02-21T10:10:42;6.68;;;2.85;;
80776;SDS011;70169;51.262;6.336;2024-02-21T10:12:58;7.25;;;2.85;;
80776;SDS011;70169;51.262;6.336;2024-02-21T10:15:14;8.52;;;3.00;;
80776;SDS011;70169;51.262;6.336;2024-02-21T10:20:43;6.90;;;3.10;;
80776;SDS011;70169;51.262;6.336;2024-02-21T10:23:19;10.73;;;3.20;;
80776;SDS011;70169;51.262;6.336;2024-02-21T10:25:39;7.75;;;2.63;;
80776;SDS011;70169;51.262;6.336;2024-02-21T10:27:58;7.80;;;3.13;;
80776;SDS011;70169;51.262;6.336;2024-02-21T10:30:14;6.93;;;3.42;;
80776;SDS011;70169;51.262;6.336;2024-02-21T10:32:30;7.05;;;3.10;;
80776;SDS011;70169;51.262;6.336;2024-02-21T10:35:00;7.07;;;3.20;;
80776;SDS011;70169;51.262;6.336;2024-02-21T10:37:45;7.00;;;2.65;;
80776;SDS011;70169;51.262;6.336;2024-02-21T10:40:18;4.90;;;2.50;;
80776;SDS011;70169;51.262;6.336;2024-02-21T10:42:44;7.75;;;3.00;;
80776;SDS011;70169;51.262;6.336;2024-02-21T10:45:02;7.75;;;3.00;;
80776;SDS011;70169;51.262;6.336;2024-02-21T10:47:19;6.78;;;2.83;;
80776;SDS011;70169;51.262;6.336;2024-02-21T10:49:41;8.35;;;3.03;;
80776;SDS011;70169;51.262;6.336;2024-02-21T10:54:38;4.20;;;2.60;;
80776;SDS011;70169;51.262;6.336;2024-02-21T10:56:58;7.18;;;3.33;;
80776;SDS011;70169;51.262;6.336;2024-02-21T10:59:17;7.13;;;2.95;;
80776;SDS011;70169;51.262;6.336;2024-02-21T11:01:33;9.35;;;3.25;;
80776;SDS011;70169;51.262;6.336;2024-02-21T11:03:52;8.43;;;2.90;;
80776;SDS011;70169;51.262;6.336;2024-02-21T11:06:10;5.70;;;3.10;;
80776;SDS011;70169;51.262;6.336;2024-02-21T11:08:27;8.23;;;3.28;;
80776;SDS011;70169;51.262;6.336;2024-02-21T11:10:45;7.35;;;2.75;;
80776;SDS011;70169;51.262;6.336;2024-02-21T11:15:26;6.47;;;3.05;;
80776;SDS011;70169;51.262;6.336;2024-02-21T11:17:42;8.52;;;3.53;;
80776;SDS011;70169;51.262;6.336;2024-02-21T11:20:12;6.93;;;2.80;;
80776;SDS011;70169;51.262;6.336;2024-02-21T11:22:28;6.20;;;3.00;;
80776;SDS011;70169;51.262;6.336;2024-02-21T11:24:46;9.00;;;2.63;;
80776;SDS011;70169;51.262;6.336;2024-02-21T11:27:08;8.85;;;3.45;;
80776;SDS011;70169;51.262;6.336;2024-02-21T11:29:27;6.95;;;3.42;;
80776;SDS011;70169;51.262;6.336;2024-02-21T11:31:44;8.00;;;3.13;;
80776;SDS011;70169;51.262;6.336;2024-02-21T11:36:23;8.75;;;3.35;;
80776;SDS011;70169;51.262;6.336;2024-02-21T11:38:39;10.32;;;3.70;;
80776;SDS011;70169;51.262;6.336;2024-02-21T11:40:55;8.77;;;3.60;;
80776;SDS011;70169;51.262;6.336;2024-02-21T11:43:10;7.80;;;3.23;;
80776;SDS011;70169;51.262;6.336;2024-02-21T11:45:25;8.13;;;3.17;;
80776;SDS011;70169;51.262;6.336;2024-02-21T11:47:42;6.85;;;3.33;;
80776;SDS011;70169;51.262;6.336;2024-02-21T11:49:58;7.68;;;3.63;;
80776;SDS011;70169;51.262;6.336;2024-02-21T11:52:13;9.23;;;3.83;;
80776;SDS011;70169;51.262;6.336;2024-02-21T11:56:47;9.02;;;3.13;;
80776;SDS011;70169;51.262;6.336;2024-02-21T11:59:02;6.63;;;3.08;;
80776;SDS011;70169;51.262;6.336;2024-02-21T12:01:18;8.55;;;3.30;;
80776;SDS011;70169;51.262;6.336;2024-02-21T12:03:33;7.53;;;3.25;;
80776;SDS011;70169;51.262;6.336;2024-02-21T12:05:52;7.00;;;2.67;;
80776;SDS011;70169;51.262;6.336;2024-02-21T12:08:09;8.77;;;3.05;;
80776;SDS011;70169;51.262;6.336;2024-02-21T12:10:27;5.07;;;2.77;;
80776;SDS011;70169;51.262;6.336;2024-02-21T12:12:43;6.22;;;2.85;;
80776;SDS011;70169;51.262;6.336;2024-02-21T12:14:59;7.77;;;2.83;;
80776;SDS011;70169;51.262;6.336;2024-02-21T12:17:14;8.38;;;3.22;;
80776;SDS011;70169;51.262;6.336;2024-02-21T12:19:30;8.37;;;3.17;;
80776;SDS011;70169;51.262;6.336;2024-02-21T12:21:47;6.32;;;3.17;;
80776;SDS011;70169;51.262;6.336;2024-02-21T12:24:11;8.85;;;2.88;;
80776;SDS011;70169;51.262;6.336;2024-02-21T12:26:27;4.47;;;2.90;;
80776;SDS011;70169;51.262;6.336;2024-02-21T12:28:43;7.67;;;3.30;;
80776;SDS011;70169;51.262;6.336;2024-02-21T12:30:58;9.05;;;2.88;;
80776;SDS011;70169;51.262;6.336;2024-02-21T12:33:13;6.07;;;2.77;;
80776;SDS011;70169;51.262;6.336;2024-02-21T12:35:29;6.68;;;2.40;;
80776;SDS011;70169;51.262;6.336;2024-02-21T12:37:46;6.90;;;2.60;;
80776;SDS011;70169;51.262;6.336;2024-02-21T12:40:01;7.67;;;2.93;;
80776;SDS011;70169;51.262;6.336;2024-02-21T12:42:21;8.23;;;3.00;;
80776;SDS011;70169;51.262;6.336;2024-02-21T12:44:38;6.97;;;2.65;;
80776;SDS011;70169;51.262;6.336;2024-02-21T12:46:54;8.33;;;2.93;;
80776;SDS011;70169;51.262;6.336;2024-02-21T12:49:09;5.28;;;2.47;;
80776;SDS011;70169;51.262;6.336;2024-02-21T12:51:25;7.25;;;3.00;;
80776;SDS011;70169;51.262;6.336;2024-02-21T12:53:40;6.75;;;2.95;;
80776;SDS011;70169;51.262;6.336;2024-02-21T12:55:56;8.23;;;2.93;;
80776;SDS011;70169;51.262;6.336;2024-02-21T12:58:11;6.90;;;2.90;;
80776;SDS011;70169;51.262;6.336;2024-02-21T13:00:28;7.25;;;3.10;;
80776;SDS011;70169;51.262;6.336;2024-02-21T13:02:46;8.00;;;2.80;;
80776;SDS011;70169;51.262;6.336;2024-02-21T13:05:02;7.55;;;2.97;;
80776;SDS011;70169;51.262;6.336;2024-02-21T13:07:17;9.60;;;3.50;;
80776;SDS011;70169;51.262;6.336;2024-02-21T13:09:33;5.60;;;2.73;;
80776;SDS011;70169;51.262;6.336;2024-02-21T13:11:48;10.27;;;2.70;;
80776;SDS011;70169;51.262;6.336;2024-02-21T13:14:03;7.00;;;3.05;;
80776;SDS011;70169;51.262;6.336;2024-02-21T13:16:19;5.83;;;2.40;;
80776;SDS011;70169;51.262;6.336;2024-02-21T13:18:34;6.50;;;2.60;;
80776;SDS011;70169;51.262;6.336;2024-02-21T13:20:52;4.72;;;2.67;;
80776;SDS011;70169;51.262;6.336;2024-02-21T13:23:08;7.93;;;2.60;;
80776;SDS011;70169;51.262;6.336;2024-02-21T13:25:23;9.30;;;3.80;;
80776;SDS011;70169;51.262;6.336;2024-02-21T13:27:38;7.07;;;2.65;;
80776;SDS011;70169;51.262;6.336;2024-02-21T13:29:54;6.27;;;2.90;;
80776;SDS011;70169;51.262;6.336;2024-02-21T13:32:09;8.68;;;2.97;;
80776;SDS011;70169;51.262;6.336;2024-02-21T13:34:24;7.13;;;3.67;;
80776;SDS011;70169;51.262;6.336;2024-02-21T13:36:40;8.70;;;3.13;;
80776;SDS011;70169;51.262;6.336;2024-02-21T13:38:55;8.73;;;3.40;;
80776;SDS011;70169;51.262;6.336;2024-02-21T13:41:10;7.23;;;3.07;;
80776;SDS011;70169;51.262;6.336;2024-02-21T13:43:26;6.72;;;3.35;;
80776;SDS011;70169;51.262;6.336;2024-02-21T13:45:45;10.20;;;3.10;;
80776;SDS011;70169;51.262;6.336;2024-02-21T13:48:11;6.85;;;2.90;;